createdAt,value
2023-04-18T00:01:44.615Z,102036.75
2023-04-18T00:04:11.904Z,102035.65
2023-04-18T00:06:39.192Z,102037.45
2023-04-18T00:09:05.828Z,102040.60
2023-04-18T00:11:32.535Z,102039.14
2023-04-18T00:13:59.445Z,102036.34
2023-04-18T00:16:27.210Z,102033.63
2023-04-18T00:18:54.244Z,102032.17
2023-04-18T00:21:22.541Z,102034.11
2023-04-18T00:23:49.219Z,102031.98
2023-04-18T00:26:15.862Z,102030.48
2023-04-18T00:28:42.600Z,102030.52
2023-04-18T00:31:09.302Z,102031.98
2023-04-18T00:33:36.020Z,102031.92
2023-04-18T00:36:02.530Z,102030.74
2023-04-18T00:38:29.075Z,102029.70
2023-04-18T00:40:55.763Z,102028.69
2023-04-18T00:43:24.096Z,102033.39
2023-04-18T00:45:50.692Z,102031.52
2023-04-18T00:48:18.402Z,102028.20
2023-04-18T00:50:45.426Z,102031.05
2023-04-18T00:53:12.063Z,102027.77
2023-04-18T00:55:39.166Z,102027.55
2023-04-18T00:58:06.347Z,102024.39
2023-04-18T01:00:35.729Z,102020.77
2023-04-18T01:03:02.693Z,102024.67
2023-04-18T01:05:29.839Z,102028.46
2023-04-18T01:08:00.859Z,102031.56
2023-04-18T01:10:28.483Z,102023.77
2023-04-18T01:13:11.762Z,102023.66
2023-04-18T01:15:40.779Z,102024.19
2023-04-18T01:18:08.902Z,102026.46
2023-04-18T01:20:38.140Z,102024.35
2023-04-18T01:23:05.695Z,102021.83
2023-04-18T01:25:33.029Z,102028.38
2023-04-18T01:28:00.160Z,102016.98
2023-04-18T01:30:26.869Z,102016.88
2023-04-18T01:32:53.481Z,102018.16
2023-04-18T01:35:20.423Z,102018.80
2023-04-18T01:37:47.420Z,102015.04
2023-04-18T01:40:14.358Z,102016.88
2023-04-18T01:42:40.984Z,102014.09
2023-04-18T01:45:08.338Z,102011.45
2023-04-18T01:47:35.246Z,102013.20
2023-04-18T01:50:02.548Z,102012.02
2023-04-18T01:52:29.058Z,102011.90
2023-04-18T01:54:55.980Z,102011.77
2023-04-18T01:57:22.523Z,102010.40
2023-04-18T01:59:49.052Z,102011.44
2023-04-18T02:02:15.794Z,102007.93
2023-04-18T02:04:42.658Z,102008.39
2023-04-18T02:07:09.184Z,102010.65
2023-04-18T02:09:36.140Z,102007.55
2023-04-18T02:12:03.180Z,102007.19
2023-04-18T02:14:31.074Z,102003.04
2023-04-18T02:16:58.911Z,102006.45
2023-04-18T02:19:25.743Z,102001.89
2023-04-18T02:21:52.240Z,102004.50
2023-04-18T02:24:19.054Z,102004.80
2023-04-18T02:26:46.013Z,102004.84
2023-04-18T02:29:12.837Z,102001.73
2023-04-18T02:31:40.905Z,102003.51
2023-04-18T02:34:08.368Z,102001.39
2023-04-18T02:36:34.935Z,102002.69
2023-04-18T02:39:01.585Z,102001.06
2023-04-18T02:41:28.392Z,102003.86
2023-04-18T02:43:55.157Z,102006.02
2023-04-18T02:46:22.012Z,102004.09
2023-04-18T02:48:48.814Z,102008.38
2023-04-18T02:51:15.706Z,102004.73
2023-04-18T02:53:42.405Z,102008.68
2023-04-18T02:56:09.228Z,102006.23
2023-04-18T02:58:36.404Z,102008.55
2023-04-18T03:01:03.274Z,102010.88
2023-04-18T03:03:30.201Z,102009.84
2023-04-18T03:05:57.103Z,102012.32
2023-04-18T03:08:23.958Z,102010.39
2023-04-18T03:10:50.532Z,102013.66
2023-04-18T03:13:17.222Z,102019.24
2023-04-18T03:15:43.899Z,102014.80
2023-04-18T03:18:12.358Z,102017.23
2023-04-18T03:20:39.103Z,102022.59
2023-04-18T03:23:05.761Z,102021.46
2023-04-18T03:25:32.564Z,102024.26
2023-04-18T03:27:59.304Z,102023.06
2023-04-18T03:30:26.148Z,102019.27
2023-04-18T03:32:53.719Z,102022.55
2023-04-18T03:35:20.819Z,102023.54
2023-04-18T03:37:47.491Z,102026.02
2023-04-18T03:40:14.124Z,102025.52
2023-04-18T03:42:40.817Z,102029.38
2023-04-18T03:45:08.055Z,102028.38
2023-04-18T03:47:34.802Z,102034.98
2023-04-18T03:50:01.504Z,102031.50
2023-04-18T03:52:29.729Z,102035.39
2023-04-18T03:54:56.485Z,102039.15
2023-04-18T03:57:22.933Z,102040.90
2023-04-18T03:59:49.601Z,102038.71
2023-04-18T04:02:16.772Z,102040.20
2023-04-18T04:04:43.670Z,102039.17
2023-04-18T04:07:10.810Z,102037.48
2023-04-18T04:09:37.443Z,102039.81
2023-04-18T04:12:04.294Z,102036.12
2023-04-18T04:14:30.896Z,102033.31
2023-04-18T04:16:57.803Z,102037.64
2023-04-18T04:19:24.896Z,102039.65
2023-04-18T04:21:51.611Z,102041.40
2023-04-18T04:24:20.440Z,102041.08
2023-04-18T04:26:48.656Z,102043.43
2023-04-18T04:29:16.363Z,102043.36
2023-04-18T04:31:43.127Z,102044.52
2023-04-18T04:34:09.803Z,102044.98
2023-04-18T04:36:36.784Z,102049.02
2023-04-18T04:39:04.227Z,102057.13
2023-04-18T04:41:31.597Z,102061.52
2023-04-18T04:43:59.564Z,102058.73
2023-04-18T04:46:30.246Z,102059.30
2023-04-18T04:48:57.425Z,102055.67
2023-04-18T04:51:24.826Z,102055.80
2023-04-18T04:53:51.704Z,102057.91
2023-04-18T04:56:21.481Z,102056.52
2023-04-18T04:58:48.319Z,102063.82
2023-04-18T05:01:16.722Z,102064.48
2023-04-18T05:03:43.945Z,102066.90
2023-04-18T05:06:10.697Z,102066.65
2023-04-18T05:08:37.346Z,102071.04
2023-04-18T05:11:04.072Z,102071.56
2023-04-18T05:13:30.527Z,102076.45
2023-04-18T05:15:59.240Z,102076.87
2023-04-18T05:18:26.049Z,102076.04
2023-04-18T05:20:52.868Z,102080.78
2023-04-18T05:23:19.750Z,102084.25
2023-04-18T05:25:46.505Z,102080.27
2023-04-18T05:28:13.315Z,102085.42
2023-04-18T05:30:40.283Z,102087.16
2023-04-18T05:33:07.390Z,102085.36
2023-04-18T05:35:34.263Z,102091.08
2023-04-18T05:38:00.918Z,102092.88
2023-04-18T05:40:28.220Z,102095.55
2023-04-18T05:42:54.857Z,102091.38
2023-04-18T05:45:21.548Z,102095.33
2023-04-18T05:47:48.545Z,102096.59
2023-04-18T05:50:15.406Z,102096.73
2023-04-18T05:52:41.841Z,102099.97
2023-04-18T05:55:09.293Z,102102.80
2023-04-18T05:57:36.208Z,102102.95
2023-04-18T06:00:06.753Z,102109.80
2023-04-18T06:02:33.509Z,102107.80
2023-04-18T06:05:01.400Z,102112.71
2023-04-18T06:07:28.456Z,102113.19
2023-04-18T06:09:56.597Z,102113.27
2023-04-18T06:12:23.336Z,102112.45
2023-04-18T06:14:50.925Z,102116.35
2023-04-18T06:17:17.712Z,102119.02
2023-04-18T06:19:44.680Z,102120.31
2023-04-18T06:22:11.384Z,102121.52
2023-04-18T06:24:38.477Z,102126.02
2023-04-18T06:27:05.665Z,102129.77
2023-04-18T06:29:33.250Z,102130.55
2023-04-18T06:32:00.135Z,102131.17
2023-04-18T06:34:26.796Z,102128.29
2023-04-18T06:36:53.524Z,102134.42
2023-04-18T06:39:20.448Z,102135.45
2023-04-18T06:41:48.488Z,102137.27
2023-04-18T06:44:15.640Z,102141.55
2023-04-18T06:46:42.743Z,102138.66
2023-04-18T06:49:09.982Z,102144.03
2023-04-18T06:51:36.803Z,102144.99
2023-04-18T06:54:03.789Z,102146.73
2023-04-18T06:56:30.745Z,102149.00
2023-04-18T06:58:58.173Z,102150.33
2023-04-18T07:01:25.212Z,102151.31
2023-04-18T07:03:52.087Z,102150.80
2023-04-18T07:06:18.833Z,102153.88
2023-04-18T07:08:45.508Z,102155.10
2023-04-18T07:11:13.278Z,102151.85
2023-04-18T07:13:40.079Z,102154.09
2023-04-18T07:16:07.492Z,102155.74
2023-04-18T07:18:38.040Z,102161.39
2023-04-18T07:21:09.079Z,102158.19
2023-04-18T07:23:36.164Z,102158.36
2023-04-18T07:26:08.251Z,102160.45
2023-04-18T07:28:34.858Z,102160.51
2023-04-18T07:31:03.022Z,102162.25
2023-04-18T07:33:33.530Z,102162.04
2023-04-18T07:36:01.528Z,102168.02
2023-04-18T07:38:28.529Z,102166.31
2023-04-18T07:40:59.158Z,102165.88
2023-04-18T07:43:26.358Z,102166.63
2023-04-18T07:45:53.388Z,102166.45
2023-04-18T07:48:25.084Z,102168.44
2023-04-18T07:50:52.053Z,102167.63
2023-04-18T07:53:18.878Z,102172.92
2023-04-18T07:55:46.513Z,102172.52
2023-04-18T07:58:13.708Z,102173.89
2023-04-18T08:00:42.522Z,102179.17
2023-04-18T08:03:13.059Z,102175.75
2023-04-18T08:05:40.539Z,102173.85
2023-04-18T08:08:08.906Z,102173.89
2023-04-18T08:10:35.896Z,102174.77
2023-04-18T08:13:03.374Z,102172.33
2023-04-18T08:15:32.265Z,102174.30
2023-04-18T08:17:59.875Z,102173.48
2023-04-18T08:20:26.745Z,102175.17
2023-04-18T08:23:05.623Z,102172.86
2023-04-18T08:25:33.289Z,102173.93
2023-04-18T08:28:00.097Z,102171.66
2023-04-18T08:30:27.028Z,102173.43
2023-04-18T08:32:53.834Z,102174.48
2023-04-18T08:35:20.817Z,102172.02
2023-04-18T08:37:47.671Z,102170.17
2023-04-18T08:40:14.618Z,102174.33
2023-04-18T08:42:44.300Z,102167.32
2023-04-18T08:45:13.950Z,102166.91
2023-04-18T08:47:41.575Z,102172.60
2023-04-18T08:50:09.705Z,102172.66
2023-04-18T08:52:38.845Z,102170.45
2023-04-18T08:55:06.298Z,102170.73
2023-04-18T08:57:33.462Z,102172.23
2023-04-18T09:00:11.114Z,102176.13
2023-04-18T09:02:42.448Z,102175.23
2023-04-18T09:05:16.564Z,102176.31
2023-04-18T09:07:44.160Z,102176.35
2023-04-18T09:10:12.460Z,102177.06
2023-04-18T09:12:52.122Z,102176.18
2023-04-18T09:15:23.411Z,102180.95
2023-04-18T09:17:54.296Z,102184.70
2023-04-18T09:20:37.559Z,102183.95
2023-04-18T09:23:14.387Z,102186.01
2023-04-18T09:25:48.896Z,102184.97
2023-04-18T09:28:23.464Z,102189.86
2023-04-18T09:30:54.217Z,102183.21
2023-04-18T09:33:33.795Z,102182.56
2023-04-18T09:36:37.240Z,102180.38
2023-04-18T09:39:04.148Z,102176.68
2023-04-18T09:41:32.520Z,102177.65
2023-04-18T09:44:14.663Z,102178.27
2023-04-18T09:46:44.487Z,102173.40
2023-04-18T09:49:12.867Z,102175.85
2023-04-18T09:51:42.032Z,102176.13
2023-04-18T09:54:10.859Z,102177.11
2023-04-18T09:56:40.967Z,102179.02
2023-04-18T09:59:09.187Z,102181.20
2023-04-18T10:01:36.537Z,102174.36
2023-04-18T10:04:06.465Z,102181.60
2023-04-18T10:06:41.849Z,102183.69
2023-04-18T10:09:09.343Z,102183.70
2023-04-18T10:11:36.441Z,102177.69
2023-04-18T10:14:06.844Z,102179.13
2023-04-18T10:16:34.945Z,102177.23
2023-04-18T10:19:27.197Z,102177.70
2023-04-18T10:22:01.472Z,102177.52
2023-04-18T10:24:49.994Z,102182.05
2023-04-18T10:27:17.840Z,102183.65
2023-04-18T10:29:52.347Z,102184.54
2023-04-18T10:32:22.115Z,102180.00
2023-04-18T10:34:53.847Z,102180.27
2023-04-18T10:37:20.613Z,102180.04
2023-04-18T10:40:08.433Z,102176.85
2023-04-18T10:42:47.323Z,102173.86
2023-04-18T10:45:24.792Z,102168.91
2023-04-18T10:48:11.474Z,102167.98
2023-04-18T10:51:12.815Z,102168.52
2023-04-18T10:53:40.548Z,102170.64
2023-04-18T10:56:09.480Z,102165.71
2023-04-18T10:58:36.869Z,102164.52
2023-04-18T11:01:04.865Z,102163.52
2023-04-18T11:03:34.803Z,102166.16
2023-04-18T11:06:04.647Z,102162.69
2023-04-18T11:08:31.830Z,102163.90
2023-04-18T11:11:03.480Z,102161.89
2023-04-18T11:13:31.935Z,102168.16
2023-04-18T11:15:58.763Z,102169.79
2023-04-18T11:18:25.584Z,102166.98
2023-04-18T11:20:52.455Z,102166.98
2023-04-18T11:23:25.463Z,102168.23
2023-04-18T11:25:56.197Z,102167.48
2023-04-18T11:28:24.917Z,102166.23
2023-04-18T11:30:51.634Z,102167.00
2023-04-18T11:33:18.321Z,102167.61
2023-04-18T11:35:46.028Z,102169.56
2023-04-18T11:38:14.489Z,102165.95
2023-04-18T11:40:50.815Z,102170.89
2023-04-18T11:43:22.904Z,102162.66
2023-04-18T11:45:56.878Z,102163.51
2023-04-18T11:48:24.130Z,102165.98
2023-04-18T11:50:51.085Z,102166.16
2023-04-18T11:53:37.825Z,102170.05
2023-04-18T11:56:05.733Z,102164.52
2023-04-18T11:58:33.841Z,102165.05
2023-04-18T12:01:16.677Z,102164.55
2023-04-18T12:03:44.943Z,102164.72
2023-04-18T12:06:12.095Z,102166.58
2023-04-18T12:08:38.586Z,102166.23
2023-04-18T12:11:05.626Z,102163.14
2023-04-18T12:13:32.916Z,102163.88
2023-04-18T12:16:02.485Z,102163.71
2023-04-18T12:18:29.883Z,102163.58
2023-04-18T12:20:58.587Z,102161.54
2023-04-18T12:23:51.771Z,102160.84
2023-04-18T12:26:18.530Z,102154.14
2023-04-18T12:28:46.000Z,102151.22
2023-04-18T12:31:12.796Z,102147.86
2023-04-18T12:33:39.581Z,102149.52
2023-04-18T12:36:08.226Z,102152.01
2023-04-18T12:38:35.398Z,102149.60
2023-04-18T12:41:01.996Z,102150.51
2023-04-18T12:43:28.665Z,102149.84
2023-04-18T12:45:55.159Z,102142.34
2023-04-18T12:48:21.748Z,102143.02
2023-04-18T12:50:48.427Z,102144.70
2023-04-18T12:53:14.890Z,102144.23
2023-04-18T12:55:41.486Z,102145.42
2023-04-18T12:58:08.106Z,102140.59
2023-04-18T13:00:34.844Z,102147.42
2023-04-18T13:03:01.646Z,102141.31
2023-04-18T13:05:33.124Z,102136.83
2023-04-18T13:10:31.084Z,102141.27
2023-04-18T13:12:57.474Z,102139.44
2023-04-18T13:15:24.092Z,102135.98
2023-04-18T13:17:50.933Z,102137.31
2023-04-18T13:20:17.578Z,102133.00
2023-04-18T13:22:45.178Z,102136.02
2023-04-18T13:25:11.776Z,102134.69
2023-04-18T13:27:41.721Z,102132.76
2023-04-18T13:30:10.648Z,102129.31
2023-04-18T13:32:39.077Z,102122.92
2023-04-18T13:35:08.240Z,102122.45
2023-04-18T13:37:34.790Z,102123.55
2023-04-18T13:40:01.548Z,102125.66
2023-04-18T13:42:28.084Z,102121.81
2023-04-18T13:44:54.782Z,102119.73
2023-04-18T13:47:21.419Z,102118.35
2023-04-18T13:49:47.943Z,102119.93
2023-04-18T13:52:14.718Z,102123.36
2023-04-18T13:54:41.476Z,102123.63
2023-04-18T13:57:11.604Z,102120.19
2023-04-18T13:59:40.504Z,102112.34
2023-04-18T14:02:09.028Z,102110.27
2023-04-18T14:04:36.579Z,102109.43
2023-04-18T14:07:06.142Z,102107.58
2023-04-18T14:09:32.785Z,102100.77
2023-04-18T14:11:59.487Z,102102.77
2023-04-18T14:14:26.027Z,102099.31
2023-04-18T14:16:53.748Z,102096.70
2023-04-18T14:19:20.526Z,102095.13
2023-04-18T14:21:47.959Z,102093.84
2023-04-18T14:24:14.889Z,102091.60
2023-04-18T14:26:41.631Z,102092.98
2023-04-18T14:29:08.321Z,102088.94
2023-04-18T14:31:35.363Z,102088.34
2023-04-18T14:34:02.036Z,102086.37
2023-04-18T14:36:28.724Z,102081.08
2023-04-18T14:38:55.379Z,102079.23
2023-04-18T14:41:22.280Z,102078.60
2023-04-18T14:43:48.899Z,102076.75
2023-04-18T14:46:18.695Z,102077.05
2023-04-18T14:48:46.913Z,102072.68
2023-04-18T14:51:15.584Z,102070.30
2023-04-18T14:53:42.369Z,102074.12
2023-04-18T14:56:09.381Z,102079.55
2023-04-18T14:58:36.220Z,102074.61
2023-04-18T15:01:04.147Z,102078.96
2023-04-18T15:03:31.320Z,102073.54
2023-04-18T15:05:58.328Z,102080.68
2023-04-18T15:08:25.188Z,102073.92
2023-04-18T15:10:52.019Z,102067.23
2023-04-18T15:13:18.692Z,102065.07
2023-04-18T15:15:51.744Z,102060.99
2023-04-18T15:18:18.484Z,102060.59
2023-04-18T15:20:45.091Z,102062.33
2023-04-18T15:23:13.719Z,102062.95
2023-04-18T15:25:41.669Z,102062.95
2023-04-18T15:28:08.454Z,102061.86
2023-04-18T15:30:35.201Z,102069.09
2023-04-18T15:33:02.421Z,102065.50
2023-04-18T15:35:29.254Z,102067.78
2023-04-18T15:37:57.387Z,102073.52
2023-04-18T15:40:24.215Z,102077.63
2023-04-18T15:42:53.433Z,102080.72
2023-04-18T15:45:21.269Z,102078.68
2023-04-18T15:47:48.452Z,102078.20
2023-04-18T15:50:16.248Z,102080.31
2023-04-18T15:52:43.901Z,102081.96
2023-04-18T15:55:12.968Z,102085.35
2023-04-18T15:57:40.017Z,102082.75
2023-04-18T16:00:15.738Z,102083.09
2023-04-18T16:02:43.780Z,102079.14
2023-04-18T16:05:12.262Z,102075.59
2023-04-18T16:07:42.648Z,102076.25
2023-04-18T16:10:10.665Z,102077.80
2023-04-18T16:12:39.040Z,102079.81
2023-04-18T16:15:08.260Z,102077.93
2023-04-18T16:17:36.703Z,102080.95
2023-04-18T16:20:03.931Z,102076.40
2023-04-18T16:22:30.764Z,102077.29
2023-04-18T16:24:57.617Z,102079.45
2023-04-18T16:27:24.301Z,102080.19
2023-04-18T16:29:50.982Z,102080.44
2023-04-18T16:32:17.761Z,102079.05
2023-04-18T16:34:44.574Z,102083.21
2023-04-18T16:37:11.296Z,102081.39
2023-04-18T16:39:38.046Z,102078.12
2023-04-18T16:42:04.965Z,102078.98
2023-04-18T16:44:32.548Z,102087.77
2023-04-18T16:46:59.343Z,102085.98
2023-04-18T16:49:26.173Z,102084.54
2023-04-18T16:51:52.767Z,102085.56
2023-04-18T16:54:19.463Z,102082.52
2023-04-18T16:56:46.438Z,102085.67
2023-04-18T16:59:13.003Z,102089.41
2023-04-18T17:01:39.681Z,102088.29
2023-04-18T17:04:06.737Z,102091.05
2023-04-18T17:06:33.320Z,102090.95
2023-04-18T17:08:59.994Z,102088.39
2023-04-18T17:11:26.757Z,102092.60
2023-04-18T17:13:53.703Z,102091.73
2023-04-18T17:16:20.600Z,102091.19
2023-04-18T17:18:47.253Z,102090.47
2023-04-18T17:21:14.021Z,102091.02
2023-04-18T17:23:42.473Z,102090.33
2023-04-18T17:26:09.565Z,102092.08
2023-04-18T17:28:36.449Z,102096.28
2023-04-18T17:31:03.220Z,102101.23
2023-04-18T17:33:30.318Z,102103.49
2023-04-18T17:35:57.146Z,102101.19
2023-04-18T17:38:23.746Z,102098.27
2023-04-18T17:40:58.500Z,102101.91
2023-04-18T17:43:25.113Z,102097.67
2023-04-18T17:45:52.118Z,102096.73
2023-04-18T17:48:18.780Z,102098.99
2023-04-18T17:50:45.616Z,102097.31
2023-04-18T17:53:12.326Z,102095.20
2023-04-18T17:55:40.532Z,102096.50
2023-04-18T17:58:07.205Z,102098.04
2023-04-18T18:00:33.926Z,102099.27
2023-04-18T18:03:01.614Z,102105.45
2023-04-18T18:05:28.464Z,102106.23
2023-04-18T18:07:56.194Z,102106.66
2023-04-18T18:10:23.803Z,102108.02
2023-04-18T18:12:50.860Z,102106.88
2023-04-18T18:15:18.326Z,102108.64
2023-04-18T18:17:44.846Z,102113.29
2023-04-18T18:20:11.694Z,102110.56
2023-04-18T18:22:38.295Z,102111.97
2023-04-18T18:25:08.099Z,102113.81
2023-04-18T18:27:34.880Z,102120.80
2023-04-18T18:30:01.640Z,102116.25
2023-04-18T18:32:28.452Z,102114.67
2023-04-18T18:34:55.004Z,102114.20
2023-04-18T18:37:23.215Z,102117.77
2023-04-18T18:39:50.010Z,102117.12
2023-04-18T18:42:16.675Z,102121.41
2023-04-18T18:44:43.476Z,102122.17
2023-04-18T18:47:10.110Z,102122.02
2023-04-18T18:49:36.728Z,102121.70
2023-04-18T18:52:05.307Z,102121.32
2023-04-18T18:54:32.110Z,102120.34
2023-04-18T18:57:00.200Z,102125.18
2023-04-18T18:59:27.137Z,102127.40
2023-04-18T19:01:53.655Z,102129.70
2023-04-18T19:04:20.512Z,102131.11
2023-04-18T19:06:47.189Z,102132.95
2023-04-18T19:09:14.048Z,102132.16
2023-04-18T19:11:40.795Z,102138.22
2023-04-18T19:14:07.210Z,102140.60
2023-04-18T19:16:35.874Z,102141.29
2023-04-18T19:19:02.480Z,102140.66
2023-04-18T19:21:29.320Z,102143.50
2023-04-18T19:23:55.958Z,102141.41
2023-04-18T19:26:23.035Z,102140.97
2023-04-18T19:28:50.027Z,102145.48
2023-04-18T19:31:16.713Z,102144.50
2023-04-18T19:33:43.511Z,102142.86
2023-04-18T19:36:10.271Z,102145.40
2023-04-18T19:38:37.235Z,102148.81
2023-04-18T19:41:03.789Z,102144.11
2023-04-18T19:43:30.262Z,102150.55
2023-04-18T19:45:56.986Z,102150.67
2023-04-18T19:48:23.880Z,102153.55
2023-04-18T19:50:51.144Z,102153.46
2023-04-18T19:53:18.974Z,102157.38
2023-04-18T19:55:46.208Z,102160.67
2023-04-18T19:58:33.561Z,102156.27
2023-04-18T20:01:00.552Z,102154.15
2023-04-18T20:03:27.914Z,102157.42
2023-04-18T20:05:54.973Z,102157.11
2023-04-18T20:08:21.974Z,102154.72
2023-04-18T20:10:48.555Z,102158.33
2023-04-18T20:13:15.444Z,102157.59
2023-04-18T20:15:42.350Z,102157.83
2023-04-18T20:18:09.150Z,102158.20
2023-04-18T20:20:35.822Z,102165.01
2023-04-18T20:23:03.322Z,102166.61
2023-04-18T20:25:30.052Z,102166.19
2023-04-18T20:27:56.870Z,102163.79
2023-04-18T20:30:23.593Z,102164.71
2023-04-18T20:32:50.362Z,102161.36
2023-04-18T20:35:17.112Z,102169.83
2023-04-18T20:37:44.628Z,102163.73
2023-04-18T20:40:11.661Z,102165.48
2023-04-18T20:42:38.875Z,102169.40
2023-04-18T20:45:11.682Z,102167.30
2023-04-18T20:47:41.307Z,102171.00
2023-04-18T20:50:08.773Z,102173.35
2023-04-18T20:52:35.335Z,102164.16
2023-04-18T20:55:01.925Z,102174.31
2023-04-18T20:57:28.991Z,102172.71
2023-04-18T20:59:58.486Z,102179.41
2023-04-18T21:02:26.298Z,102176.95
2023-04-18T21:04:53.036Z,102177.79
2023-04-18T21:07:19.705Z,102180.48
2023-04-18T21:09:46.423Z,102183.58
2023-04-18T21:12:13.181Z,102181.75
2023-04-18T21:14:40.014Z,102183.73
2023-04-18T21:17:06.536Z,102185.34
2023-04-18T21:19:33.198Z,102184.95
2023-04-18T21:21:59.826Z,102182.02
2023-04-18T21:24:26.490Z,102184.67
2023-04-18T21:26:53.152Z,102183.70
2023-04-18T21:29:21.596Z,102182.69
2023-04-18T21:31:50.119Z,102181.89
2023-04-18T21:34:16.800Z,102181.75
2023-04-18T21:36:43.998Z,102179.52
2023-04-18T21:39:10.482Z,102181.91
2023-04-18T21:41:36.998Z,102182.19
2023-04-18T21:44:03.640Z,102176.85
2023-04-18T21:46:30.444Z,102177.22
2023-04-18T21:48:57.127Z,102180.52
2023-04-18T21:51:23.910Z,102180.66
2023-04-18T21:53:50.738Z,102180.96
2023-04-18T21:56:17.453Z,102180.52
2023-04-18T21:58:44.007Z,102177.95
2023-04-18T22:01:10.633Z,102171.20
2023-04-18T22:03:37.597Z,102172.86
2023-04-18T22:06:04.437Z,102167.25
2023-04-18T22:08:31.015Z,102167.30
2023-04-18T22:10:58.917Z,102171.30
2023-04-18T22:13:30.089Z,102168.90
2023-04-18T22:15:58.158Z,102168.81
2023-04-18T22:18:25.366Z,102165.20
2023-04-18T22:20:53.679Z,102163.21
2023-04-18T22:23:20.437Z,102163.60
2023-04-18T22:25:46.988Z,102159.60
2023-04-18T22:28:13.890Z,102163.68
2023-04-18T22:30:40.467Z,102160.80
2023-04-18T22:33:07.036Z,102159.14
2023-04-18T22:35:33.950Z,102160.80
2023-04-18T22:38:00.497Z,102160.77
2023-04-18T22:40:27.148Z,102162.84
2023-04-18T22:42:54.530Z,102165.88
2023-04-18T22:45:21.161Z,102163.59
2023-04-18T22:47:48.112Z,102167.40
2023-04-18T22:50:15.214Z,102168.16
2023-04-18T22:52:41.997Z,102170.55
2023-04-18T22:55:09.534Z,102169.77
2023-04-18T22:57:36.168Z,102174.14
2023-04-18T23:00:05.050Z,102171.63
2023-04-18T23:02:31.704Z,102172.58
2023-04-18T23:04:59.661Z,102174.00
2023-04-18T23:07:26.310Z,102177.70
2023-04-18T23:09:52.935Z,102172.80
2023-04-18T23:12:19.867Z,102172.15
2023-04-18T23:14:46.400Z,102169.64
2023-04-18T23:17:13.036Z,102172.20
2023-04-18T23:19:39.940Z,102171.55
2023-04-18T23:22:06.454Z,102170.23
2023-04-18T23:24:33.036Z,102167.90
2023-04-18T23:26:59.686Z,102164.19
2023-04-18T23:29:26.784Z,102165.42
2023-04-18T23:31:53.343Z,102165.95
2023-04-18T23:34:22.421Z,102164.15
2023-04-18T23:36:48.910Z,102164.58
2023-04-18T23:39:17.478Z,102164.86
2023-04-18T23:41:44.348Z,102162.39
2023-04-18T23:44:11.207Z,102161.56
2023-04-18T23:46:37.860Z,102156.79
2023-04-18T23:49:04.461Z,102160.06
2023-04-18T23:51:31.103Z,102152.31
2023-04-18T23:53:57.720Z,102154.95
2023-04-18T23:56:24.399Z,102151.75
2023-04-18T23:58:51.010Z,102146.80
